createdAt,value
2019-02-28T00:01:16.100Z,2.70
2019-02-28T00:03:45.512Z,2.60
2019-02-28T00:06:14.568Z,2.40
2019-02-28T00:08:43.599Z,2.40
2019-02-28T00:11:12.550Z,2.40
2019-02-28T00:13:41.663Z,2.50
2019-02-28T00:16:10.955Z,2.50
2019-02-28T00:18:39.986Z,2.50
2019-02-28T00:21:08.774Z,2.50
2019-02-28T00:23:37.817Z,2.40
2019-02-28T00:26:11.228Z,2.20
2019-02-28T00:28:37.607Z,2.00
2019-02-28T00:31:06.564Z,1.90
2019-02-28T00:33:35.914Z,2.00
2019-02-28T00:36:05.048Z,2.00
2019-02-28T00:38:34.396Z,1.90
2019-02-28T00:41:03.191Z,1.80
2019-02-28T00:43:31.983Z,1.80
2019-02-28T00:46:00.862Z,1.80
2019-02-28T00:48:29.900Z,1.80
2019-02-28T00:50:59.284Z,1.90
2019-02-28T00:53:28.889Z,1.90
2019-02-28T00:55:58.239Z,1.90
2019-02-28T00:58:28.954Z,1.90
2019-02-28T01:00:58.535Z,1.80
2019-02-28T01:03:27.677Z,1.70
2019-02-28T01:05:56.534Z,1.80
2019-02-28T01:08:25.894Z,1.80
2019-02-28T01:10:55.319Z,1.70
2019-02-28T01:13:27.320Z,1.60
2019-02-28T01:15:55.208Z,1.50
2019-02-28T01:18:24.231Z,1.30
2019-02-28T01:20:53.253Z,1.30
2019-02-28T01:23:22.539Z,1.20
2019-02-28T01:25:51.325Z,1.10
2019-02-28T01:28:23.402Z,1.10
2019-02-28T01:30:51.448Z,1.00
2019-02-28T01:33:24.644Z,1.00
2019-02-28T01:35:51.091Z,1.00
2019-02-28T01:38:20.130Z,1.10
2019-02-28T01:40:49.166Z,1.10
2019-02-28T01:43:18.486Z,1.20
2019-02-28T01:45:47.542Z,1.30
2019-02-28T01:48:16.588Z,1.30
2019-02-28T01:50:45.390Z,1.30
2019-02-28T01:53:18.701Z,1.30
2019-02-28T01:55:45.265Z,1.30
2019-02-28T01:58:16.893Z,1.40
2019-02-28T02:00:45.058Z,1.40
2019-02-28T02:03:14.352Z,1.30
2019-02-28T02:05:43.570Z,1.30
2019-02-28T02:08:12.935Z,1.20
2019-02-28T02:10:42.286Z,1.10
2019-02-28T02:13:11.590Z,1.00
2019-02-28T02:15:40.635Z,1.20
2019-02-28T02:18:12.800Z,1.40
2019-02-28T02:20:41.602Z,1.60
2019-02-28T02:23:10.655Z,1.60
2019-02-28T02:25:39.920Z,1.70
2019-02-28T02:28:09.040Z,1.90
2019-02-28T02:30:38.477Z,2.00
2019-02-28T02:33:13.587Z,2.00
2019-02-28T02:35:42.125Z,2.10
2019-02-28T02:38:09.202Z,2.60
2019-02-28T02:40:38.237Z,2.70
2019-02-28T02:43:07.314Z,2.80
2019-02-28T02:45:41.787Z,2.80
2019-02-28T02:48:07.546Z,2.60
2019-02-28T02:50:36.576Z,2.40
2019-02-28T02:53:06.607Z,2.10
2019-02-28T02:55:35.750Z,1.80
2019-02-28T02:58:04.697Z,1.70
2019-02-28T03:00:33.749Z,1.60
2019-02-28T03:03:06.086Z,1.70
2019-02-28T03:05:35.958Z,1.90
2019-02-28T03:08:04.522Z,2.10
2019-02-28T03:10:33.626Z,2.20
2019-02-28T03:13:04.832Z,2.40
2019-02-28T03:15:33.213Z,2.50
2019-02-28T03:18:02.615Z,2.50
2019-02-28T03:20:31.419Z,2.50
2019-02-28T03:23:02.229Z,2.30
2019-02-28T03:25:31.440Z,2.20
2019-02-28T03:28:00.474Z,2.10
2019-02-28T03:30:32.940Z,2.10
2019-02-28T03:33:00.854Z,2.10
2019-02-28T03:35:40.113Z,2.10
2019-02-28T03:38:00.963Z,2.20
2019-02-28T03:40:29.991Z,2.20
2019-02-28T03:43:05.270Z,2.20
2019-02-28T03:45:33.912Z,2.30
2019-02-28T03:48:00.331Z,2.40
2019-02-28T03:50:29.615Z,2.40
2019-02-28T03:52:58.405Z,2.50
2019-02-28T03:55:27.836Z,2.60
2019-02-28T03:58:04.375Z,2.70
2019-02-28T04:00:32.778Z,2.60
2019-02-28T04:02:59.184Z,2.50
2019-02-28T04:05:28.526Z,2.30
2019-02-28T04:07:57.550Z,2.20
2019-02-28T04:10:26.694Z,2.30
2019-02-28T04:12:55.727Z,2.40
2019-02-28T04:15:24.917Z,2.30
2019-02-28T04:17:54.211Z,2.30
2019-02-28T04:20:23.070Z,2.80
2019-02-28T04:22:58.879Z,3.10
2019-02-28T04:25:24.528Z,3.20
2019-02-28T04:27:53.659Z,3.20
2019-02-28T04:30:22.544Z,3.30
2019-02-28T04:32:51.574Z,3.40
2019-02-28T04:35:24.324Z,3.30
2019-02-28T04:37:51.214Z,3.30
2019-02-28T04:40:20.331Z,3.30
2019-02-28T04:42:49.355Z,3.20
2019-02-28T04:45:18.149Z,3.20
2019-02-28T04:47:47.443Z,3.00
2019-02-28T04:50:16.670Z,2.90
2019-02-28T04:52:48.074Z,2.80
2019-02-28T04:55:16.642Z,2.80
2019-02-28T04:57:45.920Z,2.70
2019-02-28T05:00:16.566Z,2.80
2019-02-28T05:02:45.346Z,2.80
2019-02-28T05:05:14.547Z,2.90
2019-02-28T05:07:43.573Z,3.00
2019-02-28T05:10:12.774Z,3.40
2019-02-28T05:12:41.966Z,3.80
2019-02-28T05:15:11.323Z,4.40
2019-02-28T05:17:40.359Z,4.60
2019-02-28T05:20:10.719Z,5.20
2019-02-28T05:22:40.669Z,5.60
2019-02-28T05:25:09.684Z,6.00
2019-02-28T05:27:39.022Z,6.50
2019-02-28T05:30:09.856Z,6.80
2019-02-28T05:32:39.209Z,6.90
2019-02-28T05:35:08.469Z,6.90
2019-02-28T05:37:37.250Z,6.70
2019-02-28T05:40:06.976Z,6.30
2019-02-28T05:42:36.294Z,5.80
2019-02-28T05:45:05.884Z,5.30
2019-02-28T05:47:45.811Z,5.10
2019-02-28T05:50:06.467Z,5.00
2019-02-28T05:52:35.502Z,5.00
2019-02-28T05:55:04.623Z,4.90
2019-02-28T05:57:33.990Z,5.00
2019-02-28T06:00:03.089Z,5.10
2019-02-28T06:02:32.171Z,5.10
2019-02-28T06:05:01.189Z,5.10
2019-02-28T06:07:30.283Z,5.10
2019-02-28T06:09:59.583Z,5.20
2019-02-28T06:12:28.865Z,5.00
2019-02-28T06:15:02.194Z,4.90
2019-02-28T06:17:28.651Z,4.80
2019-02-28T06:19:57.440Z,4.80
2019-02-28T06:22:26.496Z,4.70
2019-02-28T06:24:55.282Z,4.70
2019-02-28T06:27:24.324Z,4.60
2019-02-28T06:29:53.370Z,4.60
2019-02-28T06:32:23.544Z,5.00
2019-02-28T06:34:52.927Z,5.50
2019-02-28T06:37:23.975Z,5.80
2019-02-28T06:39:53.064Z,6.10
2019-02-28T06:42:22.415Z,6.50
2019-02-28T06:44:51.448Z,6.70
2019-02-28T06:47:20.483Z,6.80
2019-02-28T06:49:49.527Z,7.00
2019-02-28T06:52:18.324Z,7.30
2019-02-28T06:54:47.439Z,7.40
2019-02-28T06:57:16.403Z,7.50
2019-02-28T06:59:45.689Z,7.50
2019-02-28T07:02:14.733Z,7.50
2019-02-28T07:04:45.499Z,7.50
2019-02-28T07:07:14.539Z,7.60
2019-02-28T07:09:43.334Z,7.50
2019-02-28T07:12:13.302Z,7.40
2019-02-28T07:14:44.480Z,7.50
2019-02-28T07:17:13.260Z,7.50
2019-02-28T07:19:42.346Z,7.60
2019-02-28T07:22:11.759Z,7.70
2019-02-28T07:24:40.810Z,7.80
2019-02-28T07:27:09.876Z,8.00
2019-02-28T07:29:42.737Z,8.30
2019-02-28T07:32:10.722Z,8.60
2019-02-28T07:34:40.277Z,8.90
2019-02-28T07:37:09.651Z,9.50
2019-02-28T07:39:40.469Z,10.00
2019-02-28T07:42:10.043Z,10.30
2019-02-28T07:44:39.083Z,10.50
2019-02-28T07:47:08.379Z,10.70
2019-02-28T07:49:37.188Z,10.80
2019-02-28T07:52:06.592Z,10.90
2019-02-28T07:54:35.722Z,11.20
2019-02-28T07:57:04.595Z,11.40
2019-02-28T07:59:33.831Z,11.50
2019-02-28T08:02:03.164Z,11.70
2019-02-28T08:04:33.040Z,11.90
2019-02-28T08:07:01.920Z,12.00
2019-02-28T08:09:31.650Z,12.10
2019-02-28T08:12:00.809Z,12.30
2019-02-28T08:14:29.859Z,12.40
2019-02-28T08:16:58.904Z,12.60
2019-02-28T08:19:28.180Z,12.70
2019-02-28T08:21:57.742Z,12.80
2019-02-28T08:24:27.429Z,12.90
2019-02-28T08:26:56.847Z,13.00
2019-02-28T08:29:26.057Z,13.10
2019-02-28T08:31:55.174Z,13.20
2019-02-28T08:34:25.013Z,13.20
2019-02-28T08:36:54.298Z,13.30
2019-02-28T08:39:23.363Z,13.40
2019-02-28T08:41:52.170Z,13.60
2019-02-28T08:44:23.765Z,13.70
2019-02-28T08:46:52.221Z,13.90
2019-02-28T08:49:21.037Z,13.90
2019-02-28T08:51:50.088Z,14.10
2019-02-28T08:54:19.174Z,14.10
2019-02-28T08:56:49.539Z,14.10
2019-02-28T08:59:22.558Z,14.30
2019-02-28T09:01:49.944Z,14.30
2019-02-28T09:04:19.231Z,14.30
2019-02-28T09:06:48.381Z,14.30
2019-02-28T09:09:17.507Z,14.40
2019-02-28T09:11:46.740Z,14.60
2019-02-28T09:14:17.804Z,14.60
2019-02-28T09:16:47.046Z,14.70
2019-02-28T09:19:15.918Z,14.70
2019-02-28T09:21:44.719Z,14.90
2019-02-28T09:24:13.702Z,14.90
2019-02-28T09:26:42.885Z,14.90
2019-02-28T09:29:11.702Z,15.00
2019-02-28T09:31:40.991Z,15.10
2019-02-28T09:34:09.851Z,15.10
2019-02-28T09:36:38.980Z,15.10
2019-02-28T09:39:08.566Z,15.20
2019-02-28T09:41:40.219Z,15.10
2019-02-28T09:44:08.540Z,15.20
2019-02-28T09:46:37.342Z,15.30
2019-02-28T09:49:11.950Z,15.30
2019-02-28T09:51:37.226Z,15.40
2019-02-28T09:54:06.380Z,15.40
2019-02-28T09:56:35.219Z,15.30
2019-02-28T09:59:04.025Z,15.30
2019-02-28T10:01:33.139Z,15.30
2019-02-28T10:04:02.178Z,15.20
2019-02-28T10:06:33.174Z,15.30
2019-02-28T10:09:01.981Z,15.30
2019-02-28T10:11:31.766Z,15.50
2019-02-28T10:14:01.601Z,15.60
2019-02-28T10:16:30.667Z,15.70
2019-02-28T10:18:59.732Z,15.90
2019-02-28T10:21:28.537Z,16.00
2019-02-28T10:23:57.916Z,16.00
2019-02-28T10:26:26.963Z,16.00
2019-02-28T10:28:55.767Z,16.10
2019-02-28T10:31:35.233Z,16.00
2019-02-28T10:33:55.196Z,16.00
2019-02-28T10:36:25.067Z,16.00
2019-02-28T10:38:54.598Z,16.20
2019-02-28T10:41:24.194Z,16.20
2019-02-28T10:43:55.902Z,16.20
2019-02-28T10:46:25.383Z,16.30
2019-02-28T10:48:54.198Z,16.60
2019-02-28T10:51:23.248Z,16.60
2019-02-28T10:53:52.639Z,16.70
2019-02-28T10:56:21.775Z,16.80
2019-02-28T10:58:51.105Z,16.80
2019-02-28T11:01:20.473Z,16.80
2019-02-28T11:03:49.695Z,16.80
2019-02-28T11:06:18.635Z,16.80
2019-02-28T11:08:48.222Z,16.90
2019-02-28T11:11:17.603Z,16.90
2019-02-28T11:13:46.887Z,16.90
2019-02-28T11:16:15.974Z,16.90
2019-02-28T11:18:45.515Z,17.00
2019-02-28T11:21:15.231Z,16.90
2019-02-28T11:23:46.523Z,17.00
2019-02-28T11:26:15.607Z,17.10
2019-02-28T11:28:44.552Z,17.30
2019-02-28T11:31:16.284Z,17.40
2019-02-28T11:33:44.371Z,17.20
2019-02-28T11:36:13.198Z,17.10
2019-02-28T11:38:42.147Z,17.10
2019-02-28T11:41:11.514Z,17.00
2019-02-28T11:43:40.644Z,17.10
2019-02-28T11:46:10.834Z,17.20
2019-02-28T11:48:39.882Z,17.30
2019-02-28T11:51:08.699Z,17.30
2019-02-28T11:53:40.288Z,17.00
2019-02-28T11:56:08.730Z,16.90
2019-02-28T11:58:37.841Z,16.80
2019-02-28T12:01:10.223Z,16.70
2019-02-28T12:03:37.390Z,16.80
2019-02-28T12:06:06.914Z,16.70
2019-02-28T12:08:36.302Z,16.90
2019-02-28T12:11:05.536Z,17.00
2019-02-28T12:13:34.587Z,17.00
2019-02-28T12:16:03.851Z,17.10
2019-02-28T12:18:33.019Z,17.40
2019-02-28T12:21:04.874Z,17.50
2019-02-28T12:23:33.230Z,17.50
2019-02-28T12:26:02.103Z,17.50
2019-02-28T12:28:30.928Z,17.20
2019-02-28T12:31:00.279Z,17.10
2019-02-28T12:33:30.117Z,17.20
2019-02-28T12:35:58.990Z,17.30
2019-02-28T12:38:29.169Z,17.50
2019-02-28T12:40:58.163Z,17.70
2019-02-28T12:43:27.279Z,17.60
2019-02-28T12:45:56.910Z,17.60
2019-02-28T12:48:27.368Z,17.60
2019-02-28T12:50:56.410Z,17.60
2019-02-28T12:53:25.591Z,17.70
2019-02-28T12:55:54.651Z,17.80
2019-02-28T12:58:23.693Z,17.80
2019-02-28T13:00:56.478Z,17.90
2019-02-28T13:03:23.380Z,17.90
2019-02-28T13:05:52.513Z,17.70
2019-02-28T13:08:21.563Z,17.60
2019-02-28T13:10:50.521Z,17.60
2019-02-28T13:13:21.487Z,17.60
2019-02-28T13:15:50.528Z,17.40
2019-02-28T13:18:19.564Z,17.50
2019-02-28T13:20:48.850Z,17.40
2019-02-28T13:23:18.075Z,17.40
2019-02-28T13:25:46.920Z,17.30
2019-02-28T13:28:17.870Z,17.40
2019-02-28T13:30:50.515Z,17.40
2019-02-28T13:33:17.652Z,17.40
2019-02-28T13:35:47.739Z,17.50
2019-02-28T13:38:19.145Z,17.40
2019-02-28T13:40:47.538Z,17.30
2019-02-28T13:43:21.110Z,17.20
2019-02-28T13:45:50.577Z,17.10
2019-02-28T13:48:25.614Z,17.10
2019-02-28T13:50:48.435Z,17.20
2019-02-28T13:53:18.594Z,17.00
2019-02-28T13:55:47.917Z,17.00
2019-02-28T13:58:17.659Z,17.10
2019-02-28T14:00:47.556Z,17.00
2019-02-28T14:03:17.132Z,17.00
2019-02-28T14:05:46.371Z,17.00
2019-02-28T14:08:15.709Z,17.00
2019-02-28T14:10:44.976Z,17.10
2019-02-28T14:13:13.814Z,17.00
2019-02-28T14:15:43.915Z,16.80
2019-02-28T14:18:13.602Z,16.80
2019-02-28T14:20:42.775Z,16.80
2019-02-28T14:23:11.968Z,16.70
2019-02-28T14:25:41.588Z,16.70
2019-02-28T14:28:10.802Z,16.70
2019-02-28T14:30:39.986Z,16.70
2019-02-28T14:33:09.470Z,16.70
2019-02-28T14:35:38.894Z,16.60
2019-02-28T14:38:08.387Z,16.60
2019-02-28T14:40:37.262Z,16.60
2019-02-28T14:43:06.801Z,16.50
2019-02-28T14:45:39.076Z,16.40
2019-02-28T14:48:06.890Z,16.40
2019-02-28T14:50:35.687Z,16.40
2019-02-28T14:53:05.066Z,16.40
2019-02-28T14:55:34.026Z,16.30
2019-02-28T14:58:02.863Z,16.30
2019-02-28T15:00:32.340Z,16.40
2019-02-28T15:03:03.121Z,16.30
2019-02-28T15:05:32.243Z,16.20
2019-02-28T15:08:01.733Z,16.20
2019-02-28T15:10:34.217Z,16.20
2019-02-28T15:13:01.520Z,16.20
2019-02-28T15:15:30.671Z,16.20
2019-02-28T15:17:59.480Z,16.20
2019-02-28T15:20:32.771Z,16.00
2019-02-28T15:22:59.670Z,16.00
2019-02-28T15:25:28.680Z,16.00
2019-02-28T15:27:57.881Z,16.00
2019-02-28T15:30:30.461Z,15.90
2019-02-28T15:32:59.434Z,15.90
2019-02-28T15:35:28.968Z,15.80
2019-02-28T15:37:57.922Z,15.80
2019-02-28T15:40:32.180Z,15.80
2019-02-28T15:43:01.010Z,15.70
2019-02-28T15:45:30.392Z,15.70
2019-02-28T15:48:00.391Z,15.50
2019-02-28T15:50:29.436Z,15.50
2019-02-28T15:52:59.059Z,15.40
2019-02-28T15:55:28.311Z,15.30
2019-02-28T15:57:57.477Z,15.30
2019-02-28T16:00:30.467Z,15.20
2019-02-28T16:03:00.091Z,15.10
2019-02-28T16:05:29.219Z,15.10
2019-02-28T16:07:58.819Z,15.10
2019-02-28T16:10:32.005Z,15.10
2019-02-28T16:13:00.221Z,15.10
2019-02-28T16:15:29.788Z,15.10
2019-02-28T16:17:58.973Z,15.10
2019-02-28T16:20:28.694Z,15.00
2019-02-28T16:22:59.189Z,15.00
2019-02-28T16:25:30.340Z,15.00
2019-02-28T16:27:59.543Z,15.00
2019-02-28T16:30:32.171Z,14.90
2019-02-28T16:32:59.892Z,14.80
2019-02-28T16:35:29.098Z,14.70
2019-02-28T16:37:57.954Z,14.50
2019-02-28T16:40:27.234Z,14.30
2019-02-28T16:42:56.338Z,14.10
2019-02-28T16:45:28.589Z,14.00
2019-02-28T16:47:59.559Z,13.60
2019-02-28T16:50:28.884Z,13.50
2019-02-28T16:52:58.315Z,13.40
2019-02-28T16:55:30.585Z,13.20
2019-02-28T16:57:58.592Z,13.00
2019-02-28T17:00:27.591Z,12.90
2019-02-28T17:02:56.531Z,12.70
2019-02-28T17:05:28.018Z,12.60
2019-02-28T17:07:56.242Z,12.50
2019-02-28T17:10:31.006Z,12.60
2019-02-28T17:13:22.329Z,12.60
2019-02-28T17:16:28.299Z,12.50
2019-02-28T17:18:57.740Z,12.40
2019-02-28T17:21:26.630Z,12.50
2019-02-28T17:23:55.818Z,12.40
2019-02-28T17:26:42.760Z,12.40
2019-02-28T17:29:25.079Z,12.30
2019-02-28T17:31:52.318Z,12.10
2019-02-28T17:34:24.432Z,12.00
2019-02-28T17:36:52.528Z,11.90
2019-02-28T17:39:21.714Z,11.80
2019-02-28T17:41:50.691Z,11.70
2019-02-28T17:44:42.982Z,11.70
2019-02-28T17:48:02.575Z,11.70
2019-02-28T17:51:01.750Z,11.70
2019-02-28T17:54:06.101Z,11.70
2019-02-28T17:57:16.541Z,11.80
2019-02-28T18:00:41.290Z,11.90
2019-02-28T18:03:37.570Z,11.90
2019-02-28T18:06:49.235Z,12.00
2019-02-28T18:09:48.106Z,11.90
2019-02-28T18:12:29.899Z,11.80
2019-02-28T18:15:25.643Z,11.60
2019-02-28T18:18:44.456Z,11.50
2019-02-28T18:21:43.562Z,11.40
2019-02-28T18:24:52.018Z,11.50
2019-02-28T18:28:10.305Z,11.60
2019-02-28T18:31:01.708Z,11.60
2019-02-28T18:33:30.571Z,11.70
2019-02-28T18:35:59.866Z,11.60
2019-02-28T18:38:28.651Z,11.60
2019-02-28T18:40:59.664Z,11.70
2019-02-28T18:43:28.482Z,11.50
2019-02-28T18:45:57.735Z,11.70
2019-02-28T18:48:26.577Z,11.60
2019-02-28T18:50:55.765Z,11.60
2019-02-28T18:53:24.863Z,11.60
2019-02-28T18:55:53.750Z,11.60
2019-02-28T18:58:23.046Z,11.40
2019-02-28T19:00:51.929Z,11.40
2019-02-28T19:03:20.863Z,11.30
2019-02-28T19:05:49.912Z,11.30
2019-02-28T19:08:19.053Z,11.30
2019-02-28T19:10:47.919Z,11.30
2019-02-28T19:13:16.959Z,11.30
2019-02-28T19:15:45.922Z,11.30
2019-02-28T19:18:15.045Z,11.20
2019-02-28T19:20:44.173Z,11.10
2019-02-28T19:23:13.490Z,11.00
2019-02-28T19:25:42.852Z,11.00
2019-02-28T19:28:11.722Z,10.90
2019-02-28T19:30:40.759Z,10.70
2019-02-28T19:33:09.798Z,10.60
2019-02-28T19:35:38.667Z,10.50
2019-02-28T19:38:07.802Z,10.30
2019-02-28T19:40:36.614Z,10.20
2019-02-28T19:43:05.753Z,10.20
2019-02-28T19:45:34.828Z,10.20
2019-02-28T19:48:04.014Z,10.20
2019-02-28T19:50:33.131Z,10.10
2019-02-28T19:53:01.935Z,10.00
2019-02-28T19:55:30.807Z,9.90
2019-02-28T19:57:59.839Z,9.90
2019-02-28T20:00:28.784Z,9.90
2019-02-28T20:02:57.656Z,9.80
2019-02-28T20:05:26.694Z,9.80
2019-02-28T20:07:55.967Z,9.80
2019-02-28T20:10:24.836Z,9.70
2019-02-28T20:12:54.187Z,9.70
2019-02-28T20:15:26.203Z,9.70
2019-02-28T20:17:55.344Z,9.70
2019-02-28T20:20:25.670Z,9.70
2019-02-28T20:22:54.851Z,9.60
2019-02-28T20:25:23.918Z,9.60
2019-02-28T20:27:53.026Z,9.50
2019-02-28T20:30:23.208Z,9.50
2019-02-28T20:32:53.043Z,9.50
2019-02-28T20:35:26.671Z,9.50
2019-02-28T20:37:53.242Z,9.50
2019-02-28T20:40:22.402Z,9.50
2019-02-28T20:42:51.316Z,9.50
2019-02-28T20:45:20.100Z,9.40
2019-02-28T20:47:49.162Z,9.40
2019-02-28T20:50:27.450Z,9.40
2019-02-28T20:52:56.756Z,9.40
2019-02-28T20:55:25.842Z,9.30
2019-02-28T20:57:55.119Z,9.30
2019-02-28T21:00:26.599Z,9.30
2019-02-28T21:02:55.547Z,9.30
2019-02-28T21:05:24.727Z,9.30
2019-02-28T21:07:53.810Z,9.20
2019-02-28T21:10:23.259Z,9.20
2019-02-28T21:12:52.631Z,9.20
2019-02-28T21:15:24.069Z,9.10
2019-02-28T21:17:53.606Z,9.20
2019-02-28T21:20:22.646Z,9.20
2019-02-28T21:22:52.036Z,9.30
2019-02-28T21:25:21.232Z,9.30
2019-02-28T21:27:50.539Z,9.30
2019-02-28T21:30:20.780Z,9.30
2019-02-28T21:32:49.916Z,9.30
2019-02-28T21:35:19.146Z,9.20
2019-02-28T21:37:48.642Z,9.20
2019-02-28T21:40:18.076Z,9.30
2019-02-28T21:42:47.302Z,9.30
2019-02-28T21:45:17.761Z,9.40
2019-02-28T21:47:46.657Z,9.40
2019-02-28T21:50:16.602Z,9.40
2019-02-28T21:52:45.894Z,9.40
2019-02-28T21:55:15.116Z,9.40
2019-02-28T21:57:44.129Z,9.40
2019-02-28T22:00:15.383Z,9.30
2019-02-28T22:02:44.568Z,9.40
2019-02-28T22:05:13.677Z,9.40
2019-02-28T22:07:44.491Z,9.40
2019-02-28T22:10:14.254Z,9.40
2019-02-28T22:12:43.200Z,9.40
2019-02-28T22:15:14.252Z,9.30
2019-02-28T22:17:43.157Z,9.30
2019-02-28T22:20:13.139Z,9.20
2019-02-28T22:22:42.001Z,9.20
2019-02-28T22:25:11.990Z,9.20
2019-02-28T22:27:41.408Z,9.20
2019-02-28T22:30:50.016Z,9.20
2019-02-28T22:33:28.448Z,9.20
2019-02-28T22:35:58.227Z,9.20
2019-02-28T22:38:27.091Z,9.20
2019-02-28T22:40:56.242Z,9.20
2019-02-28T22:43:25.066Z,9.20
2019-02-28T22:45:54.592Z,9.20
2019-02-28T22:48:23.627Z,9.20
2019-02-28T22:50:52.414Z,9.20
2019-02-28T22:53:21.600Z,9.20
2019-02-28T22:55:50.492Z,9.20
2019-02-28T22:58:19.603Z,9.20
2019-02-28T23:00:59.103Z,9.20
2019-02-28T23:03:29.438Z,9.20
2019-02-28T23:05:58.832Z,9.20
2019-02-28T23:08:28.251Z,9.20
2019-02-28T23:10:57.222Z,9.20
2019-02-28T23:13:26.388Z,9.20
2019-02-28T23:15:55.532Z,9.20
2019-02-28T23:18:24.327Z,9.20
2019-02-28T23:20:53.642Z,9.10
2019-02-28T23:23:22.770Z,9.10
2019-02-28T23:25:51.651Z,9.00
2019-02-28T23:28:31.667Z,9.00
2019-02-28T23:31:43.047Z,9.00
2019-02-28T23:34:29.063Z,9.00
2019-02-28T23:36:57.883Z,8.90
2019-02-28T23:39:27.180Z,8.90
2019-02-28T23:41:55.979Z,8.90
2019-02-28T23:44:25.084Z,8.90
2019-02-28T23:46:53.882Z,8.90
2019-02-28T23:49:22.923Z,8.90
2019-02-28T23:51:52.060Z,8.90
2019-02-28T23:54:21.162Z,8.90
2019-02-28T23:56:50.219Z,8.90
2019-02-28T23:59:19.027Z,8.80
